Time;durP1;ratioP1;P1;durP2;ratioP2;P2;SDS_P1;SDS_P2;PMS_P1;PMS_P2;Temp;Humidity;BMP_temperature;BMP_pressure;BME280_temperature;BME280_humidity;BME280_pressure;Samples;Min_cycle;Max_cycle;Signal;HPM_P1;HPM_P2
2023/12/28 00:02:04;;;;;;;15.75;3.00;;;;;;;;;;4969098;28;20054;-68
2023/12/28 00:04:33;;;;;;;18.63;2.40;;;;;;;;;;4992253;28;20057;-68
2023/12/28 00:07:00;;;;;;;30.00;3.58;;;;;;;;;;4991140;28;20137;-67
2023/12/28 00:09:28;;;;;;;13.80;2.58;;;;;;;;;;4991679;28;20153;-67
2023/12/28 00:11:55;;;;;;;24.95;3.55;;;;;;;;;;4991013;28;20050;-68
2023/12/28 00:14:24;;;;;;;23.92;3.20;;;;;;;;;;4986637;28;20054;-68
2023/12/28 00:16:51;;;;;;;19.77;3.67;;;;;;;;;;4990693;28;20108;-68
2023/12/28 00:19:19;;;;;;;27.23;3.05;;;;;;;;;;4990395;28;20509;-68
2023/12/28 00:21:46;;;;;;;23.08;3.22;;;;;;;;;;4990062;28;20140;-68
2023/12/28 00:24:14;;;;;;;12.85;2.17;;;;;;;;;;4985460;28;20540;-67
2023/12/28 00:26:41;;;;;;;24.33;2.92;;;;;;;;;;4991033;28;20047;-68
2023/12/28 00:29:08;;;;;;;16.48;2.63;;;;;;;;;;4991439;28;20061;-68
2023/12/28 00:31:37;;;;;;;20.70;3.78;;;;;;;;;;4990593;28;21456;-68
2023/12/28 00:34:04;;;;;;;24.98;2.97;;;;;;;;;;4987873;28;20440;-68
2023/12/28 00:36:31;;;;;;;28.27;3.72;;;;;;;;;;4988920;28;20073;-67
2023/12/28 00:38:59;;;;;;;25.33;3.15;;;;;;;;;;4986861;28;20387;-68
2023/12/28 00:41:26;;;;;;;24.52;3.58;;;;;;;;;;4989397;28;20155;-67
2023/12/28 00:43:53;;;;;;;22.85;3.40;;;;;;;;;;4990555;28;20050;-68
2023/12/28 00:46:20;;;;;;;26.63;3.58;;;;;;;;;;4991037;28;20058;-68
2023/12/28 00:48:49;;;;;;;23.35;3.17;;;;;;;;;;4989879;28;20050;-68
2023/12/28 00:51:16;;;;;;;19.55;3.38;;;;;;;;;;4991148;28;20069;-67
2023/12/28 00:53:43;;;;;;;22.15;2.60;;;;;;;;;;4989464;28;20058;-69
2023/12/28 00:56:11;;;;;;;26.40;3.63;;;;;;;;;;4990999;28;20050;-68
2023/12/28 00:58:40;;;;;;;26.45;3.30;;;;;;;;;;4990273;28;20058;-68
2023/12/28 01:01:07;;;;;;;18.33;2.95;;;;;;;;;;4986416;28;20078;-68
2023/12/28 01:03:34;;;;;;;24.42;3.00;;;;;;;;;;4986967;28;20402;-67
2023/12/28 01:06:03;;;;;;;22.58;3.22;;;;;;;;;;4990133;28;20480;-69
2023/12/28 01:08:30;;;;;;;17.23;2.55;;;;;;;;;;4987887;28;20058;-67
2023/12/28 01:10:58;;;;;;;20.70;3.33;;;;;;;;;;4988193;28;20048;-67
2023/12/28 01:13:25;;;;;;;21.17;3.85;;;;;;;;;;4983763;28;20058;-67
2023/12/28 01:15:52;;;;;;;23.00;3.30;;;;;;;;;;4989898;28;20050;-67
2023/12/28 01:18:20;;;;;;;19.23;2.92;;;;;;;;;;4988899;28;20054;-68
2023/12/28 01:20:47;;;;;;;28.88;3.50;;;;;;;;;;4984070;28;20054;-68
2023/12/28 01:23:16;;;;;;;25.13;3.35;;;;;;;;;;4989177;28;20050;-68
2023/12/28 01:25:43;;;;;;;22.98;3.47;;;;;;;;;;4982248;28;20053;-69
2023/12/28 01:28:10;;;;;;;26.08;3.17;;;;;;;;;;4990100;28;20047;-68
2023/12/28 01:30:37;;;;;;;23.08;3.70;;;;;;;;;;4990923;28;20397;-68
2023/12/28 01:33:05;;;;;;;29.77;3.28;;;;;;;;;;4988922;28;20054;-67
2023/12/28 01:35:32;;;;;;;25.23;3.40;;;;;;;;;;4984056;28;20461;-68
2023/12/28 01:38:00;;;;;;;26.83;4.25;;;;;;;;;;4988507;28;20050;-68
2023/12/28 01:40:29;;;;;;;20.35;3.25;;;;;;;;;;4979308;28;20042;-68
2023/12/28 01:42:56;;;;;;;18.60;3.40;;;;;;;;;;4986471;28;20050;-68
2023/12/28 01:45:23;;;;;;;32.38;3.30;;;;;;;;;;4981774;28;20052;-67
2023/12/28 01:47:51;;;;;;;26.88;3.42;;;;;;;;;;4986190;28;20375;-67
2023/12/28 01:50:19;;;;;;;26.27;4.55;;;;;;;;;;4986209;28;20057;-68
2023/12/28 01:52:47;;;;;;;32.38;4.18;;;;;;;;;;4989114;28;20050;-68
2023/12/28 01:55:15;;;;;;;29.17;3.95;;;;;;;;;;4990270;28;20085;-68
2023/12/28 01:57:43;;;;;;;31.88;3.85;;;;;;;;;;4982514;28;20047;-67
2023/12/28 02:00:12;;;;;;;33.05;3.85;;;;;;;;;;4989711;28;20066;-68
2023/12/28 02:02:41;;;;;;;25.13;4.25;;;;;;;;;;4987185;28;20763;-68
2023/12/28 02:05:09;;;;;;;32.40;3.78;;;;;;;;;;4989462;28;20054;-68
2023/12/28 02:07:38;;;;;;;29.42;3.85;;;;;;;;;;4988687;28;20080;-68
2023/12/28 02:10:05;;;;;;;26.60;3.42;;;;;;;;;;4989161;28;20050;-68
2023/12/28 02:12:32;;;;;;;27.33;3.60;;;;;;;;;;4983386;28;20043;-68
2023/12/28 02:15:01;;;;;;;29.05;3.67;;;;;;;;;;4973417;28;20561;-68
2023/12/28 02:17:30;;;;;;;34.85;3.85;;;;;;;;;;4988906;28;20047;-67
2023/12/28 02:19:59;;;;;;;22.83;3.03;;;;;;;;;;4971576;28;20064;-67
2023/12/28 02:22:27;;;;;;;28.90;3.50;;;;;;;;;;4984565;28;20058;-68
2023/12/28 02:25:01;;;;;;;25.92;3.33;;;;;;;;;;4980185;28;20050;-68
2023/12/28 02:27:28;;;;;;;21.42;2.90;;;;;;;;;;4980152;28;20138;-68
2023/12/28 02:29:57;;;;;;;22.95;4.38;;;;;;;;;;4967726;28;20050;-68
2023/12/28 02:32:29;;;;;;;25.70;4.65;;;;;;;;;;4989132;28;20046;-67
2023/12/28 02:34:59;;;;;;;22.35;3.80;;;;;;;;;;4980313;28;20054;-68
2023/12/28 02:37:27;;;;;;;27.33;4.68;;;;;;;;;;4965867;28;20073;-67
2023/12/28 02:39:55;;;;;;;24.20;3.28;;;;;;;;;;4979274;28;20050;-68
2023/12/28 02:42:23;;;;;;;15.32;2.58;;;;;;;;;;4985611;28;20054;-67
2023/12/28 02:44:52;;;;;;;22.13;3.33;;;;;;;;;;4984847;28;20601;-68
2023/12/28 02:47:19;;;;;;;21.48;2.65;;;;;;;;;;4984517;28;20046;-68
2023/12/28 02:49:46;;;;;;;23.45;3.40;;;;;;;;;;4980792;28;20058;-68
2023/12/28 02:52:13;;;;;;;19.33;3.20;;;;;;;;;;4984035;28;20401;-68
2023/12/28 02:54:40;;;;;;;21.13;2.85;;;;;;;;;;4974400;28;20054;-68
2023/12/28 02:57:08;;;;;;;26.77;3.15;;;;;;;;;;4979348;28;20510;-67
2023/12/28 02:59:36;;;;;;;25.00;2.80;;;;;;;;;;4989130;28;20050;-67
2023/12/28 03:02:04;;;;;;;22.90;3.78;;;;;;;;;;4985825;28;20410;-69
2023/12/28 03:04:31;;;;;;;21.33;2.75;;;;;;;;;;4987935;28;20054;-68
2023/12/28 03:06:59;;;;;;;17.58;2.30;;;;;;;;;;4988755;28;20046;-67
2023/12/28 03:09:26;;;;;;;24.58;2.97;;;;;;;;;;4984431;28;20515;-68
2023/12/28 03:11:53;;;;;;;15.43;2.45;;;;;;;;;;4969850;28;20050;-67
2023/12/28 03:14:21;;;;;;;25.17;2.95;;;;;;;;;;4986453;28;20046;-68
2023/12/28 03:16:50;;;;;;;20.52;2.30;;;;;;;;;;4987982;28;20054;-68
2023/12/28 03:19:17;;;;;;;17.52;2.72;;;;;;;;;;4987526;28;20630;-68
2023/12/28 03:21:44;;;;;;;16.90;2.28;;;;;;;;;;4987788;28;20050;-68
2023/12/28 03:24:12;;;;;;;14.85;2.45;;;;;;;;;;4986931;28;20588;-69
2023/12/28 03:26:39;;;;;;;20.85;2.60;;;;;;;;;;4988217;28;20050;-68
2023/12/28 03:29:07;;;;;;;25.58;2.85;;;;;;;;;;4991168;28;20057;-68
2023/12/28 03:31:34;;;;;;;21.38;2.35;;;;;;;;;;4992618;28;20057;-69
2023/12/28 03:34:02;;;;;;;17.77;2.58;;;;;;;;;;4987177;28;20692;-69
2023/12/28 03:36:30;;;;;;;27.98;2.42;;;;;;;;;;4992691;28;20394;-67
2023/12/28 03:38:57;;;;;;;16.80;2.45;;;;;;;;;;4992098;28;20054;-68
2023/12/28 03:41:24;;;;;;;14.35;2.35;;;;;;;;;;4974075;28;20081;-69
2023/12/28 03:43:51;;;;;;;17.40;2.05;;;;;;;;;;4990783;28;20046;-69
2023/12/28 03:46:19;;;;;;;19.60;2.50;;;;;;;;;;4990834;28;20065;-69
2023/12/28 03:48:46;;;;;;;19.85;2.20;;;;;;;;;;4988403;28;20095;-68
2023/12/28 03:51:16;;;;;;;12.70;2.45;;;;;;;;;;4992550;28;20508;-67
2023/12/28 03:53:44;;;;;;;21.15;2.85;;;;;;;;;;4990501;28;20126;-68
2023/12/28 03:56:19;;;;;;;19.00;2.70;;;;;;;;;;4992885;28;20445;-68
2023/12/28 03:58:46;;;;;;;31.20;2.85;;;;;;;;;;4989574;28;20061;-68
2023/12/28 04:01:14;;;;;;;18.17;2.85;;;;;;;;;;4990899;28;20570;-68
2023/12/28 04:03:41;;;;;;;24.60;2.63;;;;;;;;;;4991104;28;20382;-69
2023/12/28 04:06:08;;;;;;;17.75;2.20;;;;;;;;;;4966186;28;20059;-68
2023/12/28 04:08:37;;;;;;;26.77;3.10;;;;;;;;;;4990326;28;20062;-68
2023/12/28 04:11:04;;;;;;;24.23;2.83;;;;;;;;;;4973623;28;20065;-68
2023/12/28 04:13:31;;;;;;;18.42;2.83;;;;;;;;;;4991938;28;20050;-68
2023/12/28 04:15:59;;;;;;;21.95;3.72;;;;;;;;;;4990427;28;20058;-67
2023/12/28 04:18:26;;;;;;;18.27;3.60;;;;;;;;;;4990336;28;20370;-68
2023/12/28 04:20:53;;;;;;;17.63;2.85;;;;;;;;;;4988119;28;20463;-68
2023/12/28 04:23:21;;;;;;;24.83;2.78;;;;;;;;;;4990073;28;20059;-68
2023/12/28 04:25:49;;;;;;;20.50;3.33;;;;;;;;;;4988420;28;20046;-68
2023/12/28 04:28:17;;;;;;;24.42;3.58;;;;;;;;;;4992352;28;20054;-68
2023/12/28 04:30:44;;;;;;;22.30;3.05;;;;;;;;;;4987421;28;20074;-68
2023/12/28 04:33:11;;;;;;;23.15;3.15;;;;;;;;;;4990876;28;20054;-68
2023/12/28 04:35:38;;;;;;;20.50;3.55;;;;;;;;;;4991354;28;20485;-68
2023/12/28 04:38:06;;;;;;;21.67;4.38;;;;;;;;;;4986393;28;20125;-68
2023/12/28 04:40:33;;;;;;;23.88;3.80;;;;;;;;;;4988134;28;20050;-69
2023/12/28 04:43:02;;;;;;;26.30;3.05;;;;;;;;;;4988152;28;20054;-69
2023/12/28 04:45:29;;;;;;;23.50;4.13;;;;;;;;;;4987609;28;20090;-69
2023/12/28 04:47:57;;;;;;;21.45;3.22;;;;;;;;;;4986514;28;20050;-68
2023/12/28 04:50:24;;;;;;;21.95;2.58;;;;;;;;;;4991354;28;20058;-68
2023/12/28 04:52:51;;;;;;;21.52;3.40;;;;;;;;;;4989093;28;20053;-68
2023/12/28 04:55:18;;;;;;;24.63;3.53;;;;;;;;;;4989560;28;20089;-68
2023/12/28 04:57:45;;;;;;;17.95;2.65;;;;;;;;;;4987214;28;20054;-68
2023/12/28 05:00:15;;;;;;;31.80;3.20;;;;;;;;;;4987085;28;20069;-68
2023/12/28 05:02:42;;;;;;;22.70;2.55;;;;;;;;;;4985385;28;20051;-68
2023/12/28 05:05:11;;;;;;;30.60;4.55;;;;;;;;;;4990706;28;20457;-68
2023/12/28 05:07:39;;;;;;;28.65;3.20;;;;;;;;;;4987363;28;20133;-68
2023/12/28 05:10:06;;;;;;;24.35;3.05;;;;;;;;;;4987359;28;20129;-68
2023/12/28 05:12:34;;;;;;;24.60;3.53;;;;;;;;;;4986123;28;20043;-68
2023/12/28 05:15:01;;;;;;;26.80;3.50;;;;;;;;;;4986399;28;20054;-68
2023/12/28 05:17:29;;;;;;;24.92;3.35;;;;;;;;;;4968989;28;20046;-68
2023/12/28 05:19:57;;;;;;;24.00;3.95;;;;;;;;;;4987912;28;20161;-68
2023/12/28 05:22:24;;;;;;;29.40;3.95;;;;;;;;;;4989193;28;20552;-68
2023/12/28 05:24:51;;;;;;;21.80;2.92;;;;;;;;;;4988021;28;20069;-68
2023/12/28 05:27:18;;;;;;;28.00;3.75;;;;;;;;;;4988743;28;20058;-67
2023/12/28 05:29:46;;;;;;;30.50;4.63;;;;;;;;;;4986864;28;20469;-68
2023/12/28 05:32:13;;;;;;;32.10;3.40;;;;;;;;;;4986186;28;20057;-68
2023/12/28 05:34:41;;;;;;;23.98;3.55;;;;;;;;;;4984630;28;20043;-71
2023/12/28 05:37:09;;;;;;;33.80;4.68;;;;;;;;;;4983900;28;20133;-71
2023/12/28 05:39:36;;;;;;;25.13;3.15;;;;;;;;;;4969416;28;20077;-71
2023/12/28 05:42:03;;;;;;;20.40;3.38;;;;;;;;;;4989194;28;20049;-71
2023/12/28 05:44:30;;;;;;;33.30;4.65;;;;;;;;;;4984108;28;20397;-71
2023/12/28 05:46:58;;;;;;;24.67;3.40;;;;;;;;;;4985541;28;20046;-71
2023/12/28 05:49:25;;;;;;;28.30;3.63;;;;;;;;;;4971129;28;20658;-71
2023/12/28 05:51:54;;;;;;;29.30;3.28;;;;;;;;;;4985885;28;20047;-71
2023/12/28 05:54:21;;;;;;;37.35;5.75;;;;;;;;;;4988172;28;20046;-71
2023/12/28 05:56:48;;;;;;;26.63;3.20;;;;;;;;;;4986288;28;20074;-71
2023/12/28 05:59:16;;;;;;;22.95;3.25;;;;;;;;;;4988354;28;20050;-71
2023/12/28 06:01:43;;;;;;;33.80;4.80;;;;;;;;;;4986874;28;20050;-69
2023/12/28 06:04:11;;;;;;;29.30;4.05;;;;;;;;;;4989250;28;20506;-71
2023/12/28 06:06:38;;;;;;;27.88;3.92;;;;;;;;;;4987980;28;20070;-71
2023/12/28 06:09:07;;;;;;;22.40;3.50;;;;;;;;;;4989652;28;20130;-71
2023/12/28 06:11:35;;;;;;;24.10;4.10;;;;;;;;;;4984951;28;20050;-71
2023/12/28 06:14:02;;;;;;;34.38;4.38;;;;;;;;;;4989453;28;20509;-71
2023/12/28 06:16:32;;;;;;;19.55;3.17;;;;;;;;;;4988196;28;20449;-71
2023/12/28 06:19:01;;;;;;;28.60;3.75;;;;;;;;;;4986037;28;20042;-71
2023/12/28 06:21:29;;;;;;;31.38;3.92;;;;;;;;;;4985203;28;20057;-71
2023/12/28 06:23:57;;;;;;;32.70;5.00;;;;;;;;;;4987501;28;20050;-71
2023/12/28 06:26:25;;;;;;;24.58;3.42;;;;;;;;;;4979968;28;20054;-72
2023/12/28 06:28:52;;;;;;;30.35;4.22;;;;;;;;;;4987279;28;20050;-71
2023/12/28 06:31:20;;;;;;;33.17;4.55;;;;;;;;;;4989808;28;20192;-71
2023/12/28 06:33:47;;;;;;;23.75;3.45;;;;;;;;;;4987689;28;20050;-71
2023/12/28 06:36:14;;;;;;;23.55;4.72;;;;;;;;;;4989601;28;20057;-71
2023/12/28 06:38:41;;;;;;;29.23;4.20;;;;;;;;;;4987106;28;20053;-70
2023/12/28 06:41:13;;;;;;;25.08;3.80;;;;;;;;;;4987894;28;20519;-71
2023/12/28 06:43:41;;;;;;;31.00;4.18;;;;;;;;;;4986909;28;20104;-67
2023/12/28 06:46:08;;;;;;;28.10;3.90;;;;;;;;;;4988996;28;20061;-68
2023/12/28 06:48:37;;;;;;;23.80;3.53;;;;;;;;;;4967529;28;20192;-67
2023/12/28 06:51:05;;;;;;;38.20;4.82;;;;;;;;;;4989186;28;20050;-67
2023/12/28 06:53:32;;;;;;;23.73;3.65;;;;;;;;;;4987442;28;20497;-69
2023/12/28 06:55:59;;;;;;;28.25;4.80;;;;;;;;;;4985939;28;20046;-68
2023/12/28 06:58:26;;;;;;;22.50;3.53;;;;;;;;;;4989414;28;20046;-68
2023/12/28 07:00:57;;;;;;;32.85;4.25;;;;;;;;;;4988051;28;20043;-67
2023/12/28 07:03:25;;;;;;;25.20;4.80;;;;;;;;;;4970261;28;20052;-67
2023/12/28 07:05:52;;;;;;;31.33;5.32;;;;;;;;;;4990991;28;20050;-68
2023/12/28 07:08:19;;;;;;;34.47;4.75;;;;;;;;;;4992634;28;20062;-68
2023/12/28 07:10:46;;;;;;;32.38;4.25;;;;;;;;;;4990762;28;20042;-68
2023/12/28 07:13:14;;;;;;;25.52;3.38;;;;;;;;;;4992217;28;20128;-68
2023/12/28 07:15:41;;;;;;;30.63;5.43;;;;;;;;;;4992650;28;20052;-67
2023/12/28 07:18:10;;;;;;;29.70;3.85;;;;;;;;;;4990230;28;20063;-68
2023/12/28 07:20:37;;;;;;;34.72;5.43;;;;;;;;;;4989673;28;20103;-68
2023/12/28 07:23:04;;;;;;;27.30;5.00;;;;;;;;;;4990267;28;20117;-68
2023/12/28 07:25:32;;;;;;;21.75;4.10;;;;;;;;;;4991854;28;20054;-68
2023/12/28 07:27:59;;;;;;;39.53;5.32;;;;;;;;;;4990476;28;20799;-68
2023/12/28 07:30:26;;;;;;;50.28;5.32;;;;;;;;;;4963305;28;20168;-68
2023/12/28 07:32:53;;;;;;;33.72;4.85;;;;;;;;;;4984736;28;20141;-67
2023/12/28 07:35:22;;;;;;;30.20;4.38;;;;;;;;;;4992178;28;20146;-68
2023/12/28 07:37:49;;;;;;;39.08;4.63;;;;;;;;;;4973267;28;20054;-69
2023/12/28 07:40:17;;;;;;;30.67;5.13;;;;;;;;;;4985419;28;20042;-68
2023/12/28 07:42:44;;;;;;;35.05;5.72;;;;;;;;;;4989715;28;20050;-69
2023/12/28 07:45:11;;;;;;;43.92;5.38;;;;;;;;;;4990133;28;20509;-68
2023/12/28 07:47:39;;;;;;;54.45;5.72;;;;;;;;;;4989502;28;20473;-67
2023/12/28 07:50:06;;;;;;;48.80;5.35;;;;;;;;;;4991273;28;20134;-68
2023/12/28 07:52:38;;;;;;;30.67;5.28;;;;;;;;;;4991371;28;20042;-68
2023/12/28 07:55:05;;;;;;;32.95;4.93;;;;;;;;;;4991500;28;20042;-68
2023/12/28 07:57:34;;;;;;;35.90;5.82;;;;;;;;;;4992074;28;20086;-69
2023/12/28 08:00:01;;;;;;;35.72;5.47;;;;;;;;;;4990785;28;20061;-68
2023/12/28 08:02:28;;;;;;;39.03;6.05;;;;;;;;;;4992130;28;20511;-68
2023/12/28 08:04:55;;;;;;;39.15;5.03;;;;;;;;;;4973857;28;20128;-69
2023/12/28 08:07:23;;;;;;;42.38;5.70;;;;;;;;;;4977366;28;20054;-69
2023/12/28 08:09:51;;;;;;;49.05;6.75;;;;;;;;;;4988380;28;20043;-68
2023/12/28 08:14:54;;;;;;;36.63;5.05;;;;;;;;;;5052336;22;20077;-67
2023/12/28 08:17:22;;;;;;;43.40;6.60;;;;;;;;;;4971523;28;20062;-67
2023/12/28 08:19:49;;;;;;;44.20;7.32;;;;;;;;;;4977788;28;20057;-66
2023/12/28 08:22:16;;;;;;;36.15;6.10;;;;;;;;;;4967058;28;20054;-66
2023/12/28 08:24:44;;;;;;;46.75;6.32;;;;;;;;;;4991849;28;20042;-67
2023/12/28 08:27:12;;;;;;;45.67;6.85;;;;;;;;;;4989032;28;20503;-66
2023/12/28 08:29:42;;;;;;;40.42;6.03;;;;;;;;;;4996351;28;20489;-67
2023/12/28 08:32:10;;;;;;;41.42;5.25;;;;;;;;;;4987947;28;20057;-68
2023/12/28 08:34:37;;;;;;;50.33;6.65;;;;;;;;;;4972240;28;20058;-67
2023/12/28 08:37:05;;;;;;;46.45;7.03;;;;;;;;;;4970356;28;20134;-66
2023/12/28 08:39:32;;;;;;;45.50;6.35;;;;;;;;;;4988740;28;20054;-67
2023/12/28 08:41:59;;;;;;;34.10;4.55;;;;;;;;;;4981068;28;20046;-67
2023/12/28 08:44:28;;;;;;;36.30;5.88;;;;;;;;;;4982336;28;20152;-67
2023/12/28 08:46:55;;;;;;;45.78;8.23;;;;;;;;;;4973956;28;20054;-67
2023/12/28 08:49:23;;;;;;;26.10;4.25;;;;;;;;;;4985646;28;20065;-66
2023/12/28 08:51:50;;;;;;;39.33;6.07;;;;;;;;;;4974924;28;20050;-67
2023/12/28 08:54:17;;;;;;;51.25;6.63;;;;;;;;;;4993065;28;20046;-65
2023/12/28 08:56:44;;;;;;;46.20;7.10;;;;;;;;;;4974028;28;20061;-68
2023/12/28 08:59:12;;;;;;;49.00;6.57;;;;;;;;;;4974019;28;20544;-67
2023/12/28 09:01:40;;;;;;;48.78;6.40;;;;;;;;;;4974456;28;20065;-67
2023/12/28 09:04:08;;;;;;;44.53;6.38;;;;;;;;;;4990109;28;20046;-67
2023/12/28 09:06:35;;;;;;;45.35;6.10;;;;;;;;;;4970741;28;20054;-68
2023/12/28 09:09:03;;;;;;;50.65;5.85;;;;;;;;;;4990040;28;20050;-68
2023/12/28 09:11:31;;;;;;;45.28;5.68;;;;;;;;;;4990415;28;20520;-68
2023/12/28 09:13:59;;;;;;;43.33;6.30;;;;;;;;;;4990325;28;20578;-69
2023/12/28 09:16:28;;;;;;;55.35;6.97;;;;;;;;;;4986107;28;20047;-68
2023/12/28 09:18:56;;;;;;;41.92;6.32;;;;;;;;;;4989640;28;20042;-68
2023/12/28 09:21:25;;;;;;;40.28;6.32;;;;;;;;;;4970966;28;20050;-68
2023/12/28 09:23:52;;;;;;;44.60;5.32;;;;;;;;;;4990588;28;20387;-69
2023/12/28 09:26:20;;;;;;;47.33;6.47;;;;;;;;;;4987147;28;20050;-68
2023/12/28 09:28:47;;;;;;;52.72;7.45;;;;;;;;;;4990180;28;20039;-68
2023/12/28 09:31:14;;;;;;;40.00;6.07;;;;;;;;;;4986690;28;20054;-69
2023/12/28 09:33:41;;;;;;;40.92;5.28;;;;;;;;;;4990679;28;20056;-68
2023/12/28 09:36:12;;;;;;;32.08;5.03;;;;;;;;;;4989718;28;20059;-68
2023/12/28 09:38:39;;;;;;;47.85;5.60;;;;;;;;;;4990091;28;20520;-67
2023/12/28 09:41:14;;;;;;;34.88;7.13;;;;;;;;;;4974260;28;20402;-68
2023/12/28 09:43:47;;;;;;;39.58;5.65;;;;;;;;;;4986296;28;20054;-69
2023/12/28 09:46:14;;;;;;;38.25;5.78;;;;;;;;;;4990271;28;20046;-68
2023/12/28 09:48:42;;;;;;;45.67;6.57;;;;;;;;;;4989462;28;20094;-69
2023/12/28 09:51:11;;;;;;;45.65;7.45;;;;;;;;;;4989845;28;20064;-68
2023/12/28 09:53:39;;;;;;;46.13;5.82;;;;;;;;;;4970855;28;20058;-68
2023/12/28 09:56:08;;;;;;;40.50;6.15;;;;;;;;;;4988309;28;20073;-69
2023/12/28 09:58:37;;;;;;;39.40;5.40;;;;;;;;;;4985120;28;20133;-68
2023/12/28 10:01:05;;;;;;;36.00;5.47;;;;;;;;;;4987890;28;20054;-68
2023/12/28 10:03:32;;;;;;;34.88;5.63;;;;;;;;;;4988598;28;20050;-69
2023/12/28 10:05:59;;;;;;;36.88;6.32;;;;;;;;;;4987363;28;20050;-69
2023/12/28 10:08:28;;;;;;;39.72;5.32;;;;;;;;;;4989857;28;20050;-68
2023/12/28 10:10:55;;;;;;;30.23;4.88;;;;;;;;;;4987759;28;20050;-67
2023/12/28 10:13:22;;;;;;;32.28;5.20;;;;;;;;;;4989304;28;20069;-68
2023/12/28 10:15:50;;;;;;;39.90;5.97;;;;;;;;;;4985927;28;20057;-68
2023/12/28 10:18:19;;;;;;;30.77;3.60;;;;;;;;;;4988038;28;20076;-68
2023/12/28 10:20:50;;;;;;;33.47;4.35;;;;;;;;;;4988356;28;20046;-68
2023/12/28 10:23:18;;;;;;;43.08;5.00;;;;;;;;;;4989607;28;20054;-68
2023/12/28 10:25:46;;;;;;;35.47;5.90;;;;;;;;;;4989895;28;20589;-67
2023/12/28 10:28:15;;;;;;;32.25;4.20;;;;;;;;;;4967227;28;20070;-67
2023/12/28 10:30:42;;;;;;;29.73;4.63;;;;;;;;;;4973355;28;20062;-67
2023/12/28 10:33:09;;;;;;;43.80;5.97;;;;;;;;;;4988196;28;20054;-66
2023/12/28 10:35:37;;;;;;;33.17;4.40;;;;;;;;;;4972982;28;20046;-67
2023/12/28 10:38:06;;;;;;;36.08;5.80;;;;;;;;;;4986095;28;20042;-67
2023/12/28 10:40:36;;;;;;;35.58;5.32;;;;;;;;;;4984477;28;20108;-67
2023/12/28 10:43:07;;;;;;;37.80;4.72;;;;;;;;;;4989578;28;20058;-69
2023/12/28 10:45:35;;;;;;;28.58;3.88;;;;;;;;;;4989348;28;20046;-67
2023/12/28 10:48:07;;;;;;;39.42;5.55;;;;;;;;;;4972721;28;20093;-68
2023/12/28 10:50:39;;;;;;;33.53;5.32;;;;;;;;;;4986266;28;20128;-68
2023/12/28 10:53:12;;;;;;;36.92;4.55;;;;;;;;;;4989316;28;20038;-68
2023/12/28 10:55:43;;;;;;;38.97;5.13;;;;;;;;;;4989935;28;20046;-67
2023/12/28 10:58:15;;;;;;;41.35;5.38;;;;;;;;;;4989597;28;20492;-68
2023/12/28 11:00:46;;;;;;;33.53;5.07;;;;;;;;;;4990149;28;20054;-67
2023/12/28 11:03:13;;;;;;;39.35;5.65;;;;;;;;;;4972524;28;20050;-68
2023/12/28 11:05:42;;;;;;;39.80;6.25;;;;;;;;;;4960659;28;20047;-67
2023/12/28 11:08:10;;;;;;;42.72;5.47;;;;;;;;;;4970433;28;20066;-67
2023/12/28 11:10:38;;;;;;;30.98;4.40;;;;;;;;;;4987907;28;20054;-67
2023/12/28 11:13:06;;;;;;;38.63;5.28;;;;;;;;;;4971972;28;20062;-66
2023/12/28 11:15:36;;;;;;;30.20;4.38;;;;;;;;;;4989985;28;20047;-67
2023/12/28 11:18:03;;;;;;;34.22;6.18;;;;;;;;;;4985517;28;20046;-67
2023/12/28 11:20:31;;;;;;;36.60;6.10;;;;;;;;;;4985919;28;20437;-67
2023/12/28 11:22:59;;;;;;;41.83;5.43;;;;;;;;;;4972236;28;20059;-66
2023/12/28 11:25:32;;;;;;;40.03;5.15;;;;;;;;;;4990223;28;20057;-68
2023/12/28 11:27:59;;;;;;;40.22;4.82;;;;;;;;;;4967318;28;20053;-67
2023/12/28 11:30:27;;;;;;;33.40;5.47;;;;;;;;;;4989343;28;20051;-67
2023/12/28 11:32:59;;;;;;;30.80;4.45;;;;;;;;;;4990184;28;20454;-72
2023/12/28 11:35:33;;;;;;;41.20;5.85;;;;;;;;;;4987980;28;20069;-71
2023/12/28 11:38:02;;;;;;;41.35;4.88;;;;;;;;;;4987771;28;20053;-71
2023/12/28 11:40:30;;;;;;;35.05;4.40;;;;;;;;;;4986456;28;20057;-71
2023/12/28 11:42:57;;;;;;;32.88;5.40;;;;;;;;;;4987542;28;20453;-71
2023/12/28 11:45:25;;;;;;;35.05;4.72;;;;;;;;;;4981798;28;20501;-71
2023/12/28 11:48:01;;;;;;;29.95;4.45;;;;;;;;;;4991180;28;20100;-71
2023/12/28 11:50:29;;;;;;;33.78;5.25;;;;;;;;;;4989437;28;20046;-70
2023/12/28 11:52:56;;;;;;;31.10;4.50;;;;;;;;;;4989810;28;20485;-71
2023/12/28 11:55:23;;;;;;;35.15;5.35;;;;;;;;;;4988017;28;20054;-71
2023/12/28 11:57:52;;;;;;;35.03;5.55;;;;;;;;;;4993367;28;20133;-71
2023/12/28 12:00:21;;;;;;;37.63;6.43;;;;;;;;;;4992738;28;20082;-71
2023/12/28 12:02:48;;;;;;;36.53;5.78;;;;;;;;;;4991230;28;20079;-71
2023/12/28 12:05:17;;;;;;;39.92;4.57;;;;;;;;;;4990562;28;20485;-70
2023/12/28 12:07:44;;;;;;;33.72;5.40;;;;;;;;;;4982079;28;20043;-71
2023/12/28 12:10:16;;;;;;;39.25;5.15;;;;;;;;;;4972850;28;20065;-71
2023/12/28 12:12:43;;;;;;;45.63;6.57;;;;;;;;;;4989833;28;20050;-70
2023/12/28 12:15:11;;;;;;;38.55;4.72;;;;;;;;;;4991588;28;20141;-71
2023/12/28 12:17:39;;;;;;;37.72;5.60;;;;;;;;;;4968445;28;20059;-71
2023/12/28 12:20:06;;;;;;;36.78;6.05;;;;;;;;;;4984427;28;20054;-71
2023/12/28 12:22:35;;;;;;;38.70;6.25;;;;;;;;;;4989189;28;20515;-70
2023/12/28 12:25:05;;;;;;;32.53;5.47;;;;;;;;;;4990159;28;20591;-71
2023/12/28 12:27:32;;;;;;;44.45;5.45;;;;;;;;;;4991023;28;20054;-71
2023/12/28 12:29:59;;;;;;;37.90;5.47;;;;;;;;;;4992098;28;20043;-71
2023/12/28 12:32:27;;;;;;;42.40;6.05;;;;;;;;;;4990223;28;20050;-71
2023/12/28 12:34:54;;;;;;;30.27;4.00;;;;;;;;;;4972032;28;20702;-71
2023/12/28 12:37:22;;;;;;;43.45;5.03;;;;;;;;;;4990484;28;20050;-71
2023/12/28 12:39:51;;;;;;;46.88;5.13;;;;;;;;;;4990132;28;20042;-71
2023/12/28 12:42:18;;;;;;;36.08;5.18;;;;;;;;;;4989691;28;20066;-70
2023/12/28 12:44:45;;;;;;;43.05;5.03;;;;;;;;;;4990253;28;20084;-69
2023/12/28 12:47:14;;;;;;;34.53;5.10;;;;;;;;;;4987199;28;20043;-68
2023/12/28 12:49:43;;;;;;;32.30;4.15;;;;;;;;;;4994305;28;20069;-68
2023/12/28 12:52:10;;;;;;;32.78;4.88;;;;;;;;;;4985161;28;20263;-68
2023/12/28 12:54:37;;;;;;;38.67;5.35;;;;;;;;;;4988213;28;20104;-68
2023/12/28 12:57:06;;;;;;;33.80;5.38;;;;;;;;;;4968583;28;20049;-67
2023/12/28 12:59:33;;;;;;;32.90;4.03;;;;;;;;;;4989814;28;20452;-67
2023/12/28 13:02:02;;;;;;;23.77;3.50;;;;;;;;;;4967491;28;20568;-68
2023/12/28 13:04:29;;;;;;;34.55;4.22;;;;;;;;;;4989195;28;20055;-67
2023/12/28 13:06:56;;;;;;;38.65;5.15;;;;;;;;;;4989842;28;20097;-68
2023/12/28 13:09:24;;;;;;;26.55;4.22;;;;;;;;;;4988399;28;20050;-68
2023/12/28 13:11:51;;;;;;;32.20;4.60;;;;;;;;;;4990211;28;20058;-68
2023/12/28 13:14:20;;;;;;;26.20;4.35;;;;;;;;;;4971843;28;20061;-68
2023/12/28 13:16:52;;;;;;;30.65;4.72;;;;;;;;;;4968568;28;20093;-68
2023/12/28 13:19:19;;;;;;;36.72;4.80;;;;;;;;;;4987919;28;20056;-68
2023/12/28 13:21:46;;;;;;;32.95;5.53;;;;;;;;;;4988909;28;20061;-68
2023/12/28 13:24:13;;;;;;;37.78;4.72;;;;;;;;;;4972151;28;20058;-68
2023/12/28 13:26:41;;;;;;;34.60;6.35;;;;;;;;;;4990585;28;20050;-67
2023/12/28 13:29:09;;;;;;;37.28;6.65;;;;;;;;;;4989412;28;20128;-67
2023/12/28 13:31:37;;;;;;;33.95;5.07;;;;;;;;;;4986707;28;20141;-67
2023/12/28 13:34:04;;;;;;;32.90;5.85;;;;;;;;;;4970624;28;20484;-68
2023/12/28 13:36:33;;;;;;;36.95;5.07;;;;;;;;;;4988335;28;20054;-68
2023/12/28 13:39:00;;;;;;;47.60;6.20;;;;;;;;;;4988823;28;20058;-68
2023/12/28 13:41:28;;;;;;;32.35;4.90;;;;;;;;;;4989373;28;20074;-68
2023/12/28 13:44:01;;;;;;;42.33;4.95;;;;;;;;;;4989598;28;20047;-68
2023/12/28 13:46:29;;;;;;;44.90;6.13;;;;;;;;;;4987407;28;20422;-68
2023/12/28 13:48:57;;;;;;;37.53;5.82;;;;;;;;;;4977143;28;20516;-68
2023/12/28 13:51:25;;;;;;;34.28;3.97;;;;;;;;;;4989608;28;20100;-67
2023/12/28 13:53:52;;;;;;;27.33;4.05;;;;;;;;;;4990130;28;20473;-66
2023/12/28 13:56:19;;;;;;;34.30;4.47;;;;;;;;;;4990288;28;20048;-67
2023/12/28 13:58:46;;;;;;;38.20;4.30;;;;;;;;;;4990175;28;20053;-67
2023/12/28 14:01:14;;;;;;;30.38;4.32;;;;;;;;;;4984639;28;20415;-66
2023/12/28 14:03:40;;;;;;;25.00;4.18;;;;;;;;;;4973128;28;20058;-67
2023/12/28 14:06:09;;;;;;;32.65;3.40;;;;;;;;;;4989857;28;20108;-65
2023/12/28 14:08:36;;;;;;;29.05;4.25;;;;;;;;;;4990095;28;20445;-67
2023/12/28 14:11:03;;;;;;;34.20;4.80;;;;;;;;;;4988555;28;21630;-66
2023/12/28 14:13:31;;;;;;;23.60;3.60;;;;;;;;;;4988118;28;20222;-65
2023/12/28 14:15:59;;;;;;;22.48;3.33;;;;;;;;;;4979610;28;20046;-66
2023/12/28 14:18:26;;;;;;;31.63;4.20;;;;;;;;;;4989583;28;20058;-66
2023/12/28 14:20:53;;;;;;;31.60;4.40;;;;;;;;;;4989003;28;20046;-67
2023/12/28 14:23:23;;;;;;;23.48;3.58;;;;;;;;;;4989812;28;20502;-66
2023/12/28 14:25:53;;;;;;;31.55;4.00;;;;;;;;;;4989849;28;20500;-67
2023/12/28 14:28:21;;;;;;;32.35;3.92;;;;;;;;;;4990678;28;20572;-67
2023/12/28 14:30:48;;;;;;;21.63;3.25;;;;;;;;;;4988424;28;20046;-66
2023/12/28 14:33:16;;;;;;;31.30;4.18;;;;;;;;;;4989063;28;20061;-66
2023/12/28 14:35:43;;;;;;;35.05;4.40;;;;;;;;;;4971227;28;20097;-68
2023/12/28 14:38:12;;;;;;;23.38;3.50;;;;;;;;;;4992370;28;20061;-65